KBYY

Details ICAO KBYY
Name BAY CITY MUNI
Region United States
Timezone America/Chicago (UTC-6.0)
Plans Departing 2
Arriving 2
Stats Elevation 45 ft / 14 m (AMSL)
Location 28.973246° -95.863453°
Runways 1
Magnetic Variation 2.798° E
Sunrise 2017-12-18 13:12:44 UTC / 2017-12-18 07:12:44 Local
Sunset 2017-12-18 23:30:22 UTC / 2017-12-18 17:30:22 Local
Advertisement - Login to hide

Runways

ID Width Length Bearing (true) Bearing (mag) Surface Threshold Offset Overrun Length
13 75 ft / 23 m 5,111 ft / 1,558 m 133.71° 130.91° Asphalt 0 ft / 0 m 0 ft / 0 m
31 75 ft / 23 m 5,111 ft / 1,558 m 313.72° 310.92° Asphalt 0 ft / 0 m 0 ft / 0 m

Map

Weather


0- 5 10 15 20 25 30 35+ Temperature / ° C

Clouds and Precipitation
Forecast for 2017-12-18 12:00 UTC. Updated 2 hours ago

Ground ~20,000 ft ~40,000 ft Winds

METAR

KBYY 180855Z AUTO 00000KT 10SM OVC027 15/13 A3010 RMK AO2 T01480140

TAF

Not found

Frequencies

Recorded 118.07 MHz AWOS 3
Unicom 122.80 MHz CTAF/UNICOM
Warning: Do not use this data for real-world aviation or navigation. No guarantee of current accuracy is given.